sensor_id;sensor_type;location;lat;lon;timestamp;P1;durP1;ratioP1;P2;durP2;ratioP2
13291;SDS011;6714;53.056;8.690;2023-02-01T00:01:52;16.87;;;4.27;;
13291;SDS011;6714;53.056;8.690;2023-02-01T00:04:34;13.43;;;3.50;;
13291;SDS011;6714;53.056;8.690;2023-02-01T00:07:16;10.07;;;2.90;;
13291;SDS011;6714;53.056;8.690;2023-02-01T00:09:58;15.07;;;3.77;;
13291;SDS011;6714;53.056;8.690;2023-02-01T00:12:41;12.83;;;3.87;;
13291;SDS011;6714;53.056;8.690;2023-02-01T00:15:25;14.50;;;3.60;;
13291;SDS011;6714;53.056;8.690;2023-02-01T00:18:07;15.73;;;4.13;;
13291;SDS011;6714;53.056;8.690;2023-02-01T00:20:49;13.13;;;3.93;;
13291;SDS011;6714;53.056;8.690;2023-02-01T00:23:32;18.97;;;4.23;;
13291;SDS011;6714;53.056;8.690;2023-02-01T00:26:15;11.10;;;3.40;;
13291;SDS011;6714;53.056;8.690;2023-02-01T00:28:58;15.37;;;3.93;;
13291;SDS011;6714;53.056;8.690;2023-02-01T00:31:42;18.40;;;3.80;;
13291;SDS011;6714;53.056;8.690;2023-02-01T00:34:25;11.43;;;3.37;;
13291;SDS011;6714;53.056;8.690;2023-02-01T00:37:07;13.27;;;3.63;;
13291;SDS011;6714;53.056;8.690;2023-02-01T00:39:49;17.13;;;3.60;;
13291;SDS011;6714;53.056;8.690;2023-02-01T00:42:31;12.70;;;4.00;;
13291;SDS011;6714;53.056;8.690;2023-02-01T00:45:14;13.60;;;3.63;;
13291;SDS011;6714;53.056;8.690;2023-02-01T00:47:57;21.40;;;3.83;;
13291;SDS011;6714;53.056;8.690;2023-02-01T00:50:41;17.77;;;3.50;;
13291;SDS011;6714;53.056;8.690;2023-02-01T00:53:23;10.33;;;3.53;;
13291;SDS011;6714;53.056;8.690;2023-02-01T00:56:07;15.20;;;3.30;;
13291;SDS011;6714;53.056;8.690;2023-02-01T00:58:51;11.70;;;3.67;;
13291;SDS011;6714;53.056;8.690;2023-02-01T01:01:34;13.50;;;3.70;;
13291;SDS011;6714;53.056;8.690;2023-02-01T01:04:17;10.53;;;3.20;;
13291;SDS011;6714;53.056;8.690;2023-02-01T01:07:00;16.00;;;3.50;;
13291;SDS011;6714;53.056;8.690;2023-02-01T01:09:42;15.97;;;4.10;;
13291;SDS011;6714;53.056;8.690;2023-02-01T01:12:24;16.60;;;4.13;;
13291;SDS011;6714;53.056;8.690;2023-02-01T01:15:07;13.27;;;3.17;;
13291;SDS011;6714;53.056;8.690;2023-02-01T01:17:50;17.47;;;3.77;;
13291;SDS011;6714;53.056;8.690;2023-02-01T01:20:35;16.73;;;3.90;;
13291;SDS011;6714;53.056;8.690;2023-02-01T01:23:17;15.97;;;3.83;;
13291;SDS011;6714;53.056;8.690;2023-02-01T01:26:00;17.13;;;4.07;;
13291;SDS011;6714;53.056;8.690;2023-02-01T01:28:42;16.27;;;3.60;;
13291;SDS011;6714;53.056;8.690;2023-02-01T01:31:25;16.63;;;4.13;;
13291;SDS011;6714;53.056;8.690;2023-02-01T01:34:07;19.27;;;4.17;;
13291;SDS011;6714;53.056;8.690;2023-02-01T01:36:51;13.43;;;3.07;;
13291;SDS011;6714;53.056;8.690;2023-02-01T01:39:34;13.97;;;3.87;;
13291;SDS011;6714;53.056;8.690;2023-02-01T01:42:16;14.13;;;4.00;;
13291;SDS011;6714;53.056;8.690;2023-02-01T01:44:59;13.87;;;3.60;;
13291;SDS011;6714;53.056;8.690;2023-02-01T01:47:44;15.70;;;4.50;;
13291;SDS011;6714;53.056;8.690;2023-02-01T01:50:30;16.87;;;3.63;;
13291;SDS011;6714;53.056;8.690;2023-02-01T01:53:16;13.33;;;3.40;;
13291;SDS011;6714;53.056;8.690;2023-02-01T01:56:00;10.37;;;2.77;;
13291;SDS011;6714;53.056;8.690;2023-02-01T01:58:42;16.27;;;3.53;;
13291;SDS011;6714;53.056;8.690;2023-02-01T02:01:25;16.13;;;3.80;;
13291;SDS011;6714;53.056;8.690;2023-02-01T02:04:07;14.23;;;3.70;;
13291;SDS011;6714;53.056;8.690;2023-02-01T02:06:51;17.03;;;4.30;;
13291;SDS011;6714;53.056;8.690;2023-02-01T02:09:38;17.97;;;4.50;;
13291;SDS011;6714;53.056;8.690;2023-02-01T02:12:20;13.57;;;3.53;;
13291;SDS011;6714;53.056;8.690;2023-02-01T02:15:02;12.10;;;4.13;;
13291;SDS011;6714;53.056;8.690;2023-02-01T02:17:47;14.00;;;3.87;;
13291;SDS011;6714;53.056;8.690;2023-02-01T02:26:48;18.70;;;3.77;;
13291;SDS011;6714;53.056;8.690;2023-02-01T02:30:01;17.03;;;3.90;;
13291;SDS011;6714;53.056;8.690;2023-02-01T02:35:59;17.30;;;4.00;;
13291;SDS011;6714;53.056;8.690;2023-02-01T02:38:42;11.13;;;3.63;;
13291;SDS011;6714;53.056;8.690;2023-02-01T02:41:27;16.03;;;4.13;;
13291;SDS011;6714;53.056;8.690;2023-02-01T02:44:33;14.37;;;3.83;;
13291;SDS011;6714;53.056;8.690;2023-02-01T02:47:35;14.47;;;3.70;;
13291;SDS011;6714;53.056;8.690;2023-02-01T02:50:23;13.87;;;3.83;;
13291;SDS011;6714;53.056;8.690;2023-02-01T02:53:28;12.23;;;3.80;;
13291;SDS011;6714;53.056;8.690;2023-02-01T02:56:29;16.33;;;3.83;;
13291;SDS011;6714;53.056;8.690;2023-02-01T02:59:30;14.60;;;4.07;;
13291;SDS011;6714;53.056;8.690;2023-02-01T03:02:30;12.37;;;3.33;;
13291;SDS011;6714;53.056;8.690;2023-02-01T03:05:32;18.60;;;4.00;;
13291;SDS011;6714;53.056;8.690;2023-02-01T03:08:15;11.80;;;2.87;;
13291;SDS011;6714;53.056;8.690;2023-02-01T03:11:00;12.87;;;2.97;;
13291;SDS011;6714;53.056;8.690;2023-02-01T03:13:43;13.47;;;3.93;;
13291;SDS011;6714;53.056;8.690;2023-02-01T03:16:27;15.80;;;4.00;;
13291;SDS011;6714;53.056;8.690;2023-02-01T03:19:11;13.70;;;3.70;;
13291;SDS011;6714;53.056;8.690;2023-02-01T03:21:57;11.23;;;3.77;;
13291;SDS011;6714;53.056;8.690;2023-02-01T03:24:41;15.00;;;3.60;;
13291;SDS011;6714;53.056;8.690;2023-02-01T03:27:27;14.93;;;3.30;;
13291;SDS011;6714;53.056;8.690;2023-02-01T03:30:14;11.57;;;3.90;;
13291;SDS011;6714;53.056;8.690;2023-02-01T03:33:00;15.40;;;3.90;;
13291;SDS011;6714;53.056;8.690;2023-02-01T03:35:44;17.77;;;4.10;;
13291;SDS011;6714;53.056;8.690;2023-02-01T03:38:28;12.30;;;3.87;;
13291;SDS011;6714;53.056;8.690;2023-02-01T03:41:12;16.17;;;3.73;;
13291;SDS011;6714;53.056;8.690;2023-02-01T03:44:01;13.53;;;4.03;;
13291;SDS011;6714;53.056;8.690;2023-02-01T03:46:45;16.73;;;4.00;;
13291;SDS011;6714;53.056;8.690;2023-02-01T03:49:29;12.97;;;3.60;;
13291;SDS011;6714;53.056;8.690;2023-02-01T03:52:13;12.80;;;3.40;;
13291;SDS011;6714;53.056;8.690;2023-02-01T03:54:56;12.13;;;3.43;;
13291;SDS011;6714;53.056;8.690;2023-02-01T03:57:39;11.40;;;3.57;;
13291;SDS011;6714;53.056;8.690;2023-02-01T04:00:25;7.27;;;3.10;;
13291;SDS011;6714;53.056;8.690;2023-02-01T04:03:07;8.57;;;2.53;;
13291;SDS011;6714;53.056;8.690;2023-02-01T04:05:50;13.23;;;3.00;;
13291;SDS011;6714;53.056;8.690;2023-02-01T04:08:32;9.47;;;2.87;;
13291;SDS011;6714;53.056;8.690;2023-02-01T04:11:14;11.27;;;2.93;;
13291;SDS011;6714;53.056;8.690;2023-02-01T04:13:57;12.00;;;3.00;;
13291;SDS011;6714;53.056;8.690;2023-02-01T04:16:45;11.47;;;3.50;;
13291;SDS011;6714;53.056;8.690;2023-02-01T04:19:28;12.13;;;3.50;;
13291;SDS011;6714;53.056;8.690;2023-02-01T04:22:10;10.53;;;2.97;;
13291;SDS011;6714;53.056;8.690;2023-02-01T04:24:53;11.07;;;2.90;;
13291;SDS011;6714;53.056;8.690;2023-02-01T04:27:35;8.43;;;2.90;;
13291;SDS011;6714;53.056;8.690;2023-02-01T04:30:17;12.40;;;3.60;;
13291;SDS011;6714;53.056;8.690;2023-02-01T04:33:01;10.57;;;3.13;;
13291;SDS011;6714;53.056;8.690;2023-02-01T04:35:48;16.83;;;3.80;;
13291;SDS011;6714;53.056;8.690;2023-02-01T04:38:31;10.67;;;3.20;;
13291;SDS011;6714;53.056;8.690;2023-02-01T04:41:13;9.33;;;3.00;;
13291;SDS011;6714;53.056;8.690;2023-02-01T04:43:55;10.37;;;3.00;;
13291;SDS011;6714;53.056;8.690;2023-02-01T04:46:37;10.90;;;3.30;;
13291;SDS011;6714;53.056;8.690;2023-02-01T04:49:21;14.67;;;4.20;;
13291;SDS011;6714;53.056;8.690;2023-02-01T04:52:05;10.33;;;2.70;;
13291;SDS011;6714;53.056;8.690;2023-02-01T04:54:47;13.67;;;3.20;;
13291;SDS011;6714;53.056;8.690;2023-02-01T04:57:30;12.57;;;3.17;;
13291;SDS011;6714;53.056;8.690;2023-02-01T05:00:13;12.77;;;3.93;;
13291;SDS011;6714;53.056;8.690;2023-02-01T05:02:55;11.57;;;3.30;;
13291;SDS011;6714;53.056;8.690;2023-02-01T05:05:39;11.47;;;3.63;;
13291;SDS011;6714;53.056;8.690;2023-02-01T05:08:21;9.73;;;3.77;;
13291;SDS011;6714;53.056;8.690;2023-02-01T05:11:05;15.10;;;3.30;;
13291;SDS011;6714;53.056;8.690;2023-02-01T05:14:07;11.43;;;3.63;;
13291;SDS011;6714;53.056;8.690;2023-02-01T05:16:49;10.33;;;3.30;;
13291;SDS011;6714;53.056;8.690;2023-02-01T05:19:31;11.17;;;3.27;;
13291;SDS011;6714;53.056;8.690;2023-02-01T05:22:15;10.87;;;2.90;;
13291;SDS011;6714;53.056;8.690;2023-02-01T05:24:57;11.73;;;3.53;;
13291;SDS011;6714;53.056;8.690;2023-02-01T05:27:39;9.90;;;3.60;;
13291;SDS011;6714;53.056;8.690;2023-02-01T05:30:22;11.37;;;3.10;;
13291;SDS011;6714;53.056;8.690;2023-02-01T05:33:04;10.37;;;2.97;;
13291;SDS011;6714;53.056;8.690;2023-02-01T05:35:46;12.47;;;3.60;;
13291;SDS011;6714;53.056;8.690;2023-02-01T05:38:31;10.37;;;3.40;;
13291;SDS011;6714;53.056;8.690;2023-02-01T05:41:14;9.43;;;3.27;;
13291;SDS011;6714;53.056;8.690;2023-02-01T05:43:56;9.40;;;2.83;;
13291;SDS011;6714;53.056;8.690;2023-02-01T05:46:38;9.07;;;2.63;;
13291;SDS011;6714;53.056;8.690;2023-02-01T05:49:21;10.30;;;3.07;;
13291;SDS011;6714;53.056;8.690;2023-02-01T05:52:03;9.73;;;2.70;;
13291;SDS011;6714;53.056;8.690;2023-02-01T05:54:47;8.73;;;2.73;;
13291;SDS011;6714;53.056;8.690;2023-02-01T05:57:30;8.70;;;2.87;;
13291;SDS011;6714;53.056;8.690;2023-02-01T06:00:12;8.53;;;2.80;;
13291;SDS011;6714;53.056;8.690;2023-02-01T06:02:55;7.27;;;2.90;;
13291;SDS011;6714;53.056;8.690;2023-02-01T06:05:37;7.80;;;2.80;;
13291;SDS011;6714;53.056;8.690;2023-02-01T06:08:19;12.23;;;3.03;;
13291;SDS011;6714;53.056;8.690;2023-02-01T06:11:05;13.67;;;3.60;;
13291;SDS011;6714;53.056;8.690;2023-02-01T06:13:48;9.53;;;2.87;;
13291;SDS011;6714;53.056;8.690;2023-02-01T06:16:30;9.73;;;3.33;;
13291;SDS011;6714;53.056;8.690;2023-02-01T06:19:13;9.90;;;3.10;;
13291;SDS011;6714;53.056;8.690;2023-02-01T06:21:55;8.63;;;2.40;;
13291;SDS011;6714;53.056;8.690;2023-02-01T06:24:37;13.03;;;3.73;;
13291;SDS011;6714;53.056;8.690;2023-02-01T06:27:22;8.93;;;3.00;;
13291;SDS011;6714;53.056;8.690;2023-02-01T06:30:05;13.90;;;3.90;;
13291;SDS011;6714;53.056;8.690;2023-02-01T06:32:50;9.87;;;2.97;;
13291;SDS011;6714;53.056;8.690;2023-02-01T06:35:34;11.40;;;3.30;;
13291;SDS011;6714;53.056;8.690;2023-02-01T06:38:16;11.03;;;3.33;;
13291;SDS011;6714;53.056;8.690;2023-02-01T06:40:58;11.07;;;3.13;;
13291;SDS011;6714;53.056;8.690;2023-02-01T06:43:42;14.47;;;4.40;;
13291;SDS011;6714;53.056;8.690;2023-02-01T06:46:25;12.50;;;3.83;;
13291;SDS011;6714;53.056;8.690;2023-02-01T06:49:07;11.17;;;4.03;;
13291;SDS011;6714;53.056;8.690;2023-02-01T06:51:50;10.30;;;3.50;;
13291;SDS011;6714;53.056;8.690;2023-02-01T06:54:32;7.40;;;2.43;;
13291;SDS011;6714;53.056;8.690;2023-02-01T06:57:17;9.00;;;3.30;;
13291;SDS011;6714;53.056;8.690;2023-02-01T07:00:01;12.20;;;3.30;;
13291;SDS011;6714;53.056;8.690;2023-02-01T07:02:43;6.80;;;3.20;;
13291;SDS011;6714;53.056;8.690;2023-02-01T07:05:26;8.73;;;3.00;;
13291;SDS011;6714;53.056;8.690;2023-02-01T07:08:08;9.00;;;2.97;;
13291;SDS011;6714;53.056;8.690;2023-02-01T07:10:50;8.70;;;3.10;;
13291;SDS011;6714;53.056;8.690;2023-02-01T07:13:33;9.03;;;2.90;;
13291;SDS011;6714;53.056;8.690;2023-02-01T07:16:19;11.47;;;2.83;;
13291;SDS011;6714;53.056;8.690;2023-02-01T07:19:01;15.20;;;3.37;;
13291;SDS011;6714;53.056;8.690;2023-02-01T07:21:50;12.83;;;3.60;;
13291;SDS011;6714;53.056;8.690;2023-02-01T07:24:36;9.97;;;2.77;;
13291;SDS011;6714;53.056;8.690;2023-02-01T07:27:18;11.10;;;3.23;;
13291;SDS011;6714;53.056;8.690;2023-02-01T07:30:01;15.37;;;3.73;;
13291;SDS011;6714;53.056;8.690;2023-02-01T07:32:45;13.23;;;3.70;;
13291;SDS011;6714;53.056;8.690;2023-02-01T07:35:27;10.33;;;2.77;;
13291;SDS011;6714;53.056;8.690;2023-02-01T07:38:10;11.57;;;3.57;;
13291;SDS011;6714;53.056;8.690;2023-02-01T07:40:56;17.17;;;4.30;;
13291;SDS011;6714;53.056;8.690;2023-02-01T07:43:38;10.10;;;3.03;;
13291;SDS011;6714;53.056;8.690;2023-02-01T07:46:21;10.77;;;3.23;;
13291;SDS011;6714;53.056;8.690;2023-02-01T07:49:05;11.83;;;3.53;;
13291;SDS011;6714;53.056;8.690;2023-02-01T07:51:47;11.07;;;3.40;;
13291;SDS011;6714;53.056;8.690;2023-02-01T07:54:29;11.83;;;3.20;;
13291;SDS011;6714;53.056;8.690;2023-02-01T07:57:12;11.30;;;2.87;;
13291;SDS011;6714;53.056;8.690;2023-02-01T07:59:54;9.77;;;2.33;;
13291;SDS011;6714;53.056;8.690;2023-02-01T08:02:54;12.80;;;3.23;;
13291;SDS011;6714;53.056;8.690;2023-02-01T08:05:37;10.70;;;3.00;;
13291;SDS011;6714;53.056;8.690;2023-02-01T08:08:20;13.00;;;3.57;;
13291;SDS011;6714;53.056;8.690;2023-02-01T08:11:03;11.53;;;3.50;;
13291;SDS011;6714;53.056;8.690;2023-02-01T08:13:46;12.87;;;3.40;;
13291;SDS011;6714;53.056;8.690;2023-02-01T08:16:29;11.53;;;3.00;;
13291;SDS011;6714;53.056;8.690;2023-02-01T08:19:11;12.10;;;3.30;;
13291;SDS011;6714;53.056;8.690;2023-02-01T08:21:55;15.87;;;3.53;;
13291;SDS011;6714;53.056;8.690;2023-02-01T08:24:39;14.17;;;3.40;;
13291;SDS011;6714;53.056;8.690;2023-02-01T08:27:21;10.77;;;3.13;;
13291;SDS011;6714;53.056;8.690;2023-02-01T08:30:04;11.53;;;3.27;;
13291;SDS011;6714;53.056;8.690;2023-02-01T08:32:47;12.20;;;3.30;;
13291;SDS011;6714;53.056;8.690;2023-02-01T08:35:29;10.67;;;3.23;;
13291;SDS011;6714;53.056;8.690;2023-02-01T08:38:13;18.40;;;4.00;;
13291;SDS011;6714;53.056;8.690;2023-02-01T08:40:55;14.17;;;3.60;;
13291;SDS011;6714;53.056;8.690;2023-02-01T08:43:38;8.30;;;2.77;;
13291;SDS011;6714;53.056;8.690;2023-02-01T08:46:20;11.17;;;3.00;;
13291;SDS011;6714;53.056;8.690;2023-02-01T08:49:02;13.27;;;3.13;;
13291;SDS011;6714;53.056;8.690;2023-02-01T08:51:45;13.77;;;3.73;;
13291;SDS011;6714;53.056;8.690;2023-02-01T08:54:29;12.87;;;3.47;;
13291;SDS011;6714;53.056;8.690;2023-02-01T08:57:11;12.13;;;3.27;;
13291;SDS011;6714;53.056;8.690;2023-02-01T08:59:53;11.37;;;3.20;;
13291;SDS011;6714;53.056;8.690;2023-02-01T09:02:36;15.97;;;3.50;;
13291;SDS011;6714;53.056;8.690;2023-02-01T09:05:18;15.00;;;3.33;;
13291;SDS011;6714;53.056;8.690;2023-02-01T09:08:02;13.60;;;3.43;;
13291;SDS011;6714;53.056;8.690;2023-02-01T09:10:46;9.37;;;3.00;;
13291;SDS011;6714;53.056;8.690;2023-02-01T09:13:28;12.40;;;3.27;;
13291;SDS011;6714;53.056;8.690;2023-02-01T09:16:11;11.87;;;3.33;;
13291;SDS011;6714;53.056;8.690;2023-02-01T09:18:53;11.10;;;3.30;;
13291;SDS011;6714;53.056;8.690;2023-02-01T09:21:36;11.27;;;3.33;;
13291;SDS011;6714;53.056;8.690;2023-02-01T09:24:18;11.23;;;2.87;;
13291;SDS011;6714;53.056;8.690;2023-02-01T09:27:02;10.83;;;3.10;;
13291;SDS011;6714;53.056;8.690;2023-02-01T09:29:44;11.43;;;3.00;;
13291;SDS011;6714;53.056;8.690;2023-02-01T09:32:32;11.47;;;3.10;;
13291;SDS011;6714;53.056;8.690;2023-02-01T09:35:14;12.43;;;3.60;;
13291;SDS011;6714;53.056;8.690;2023-02-01T09:37:56;10.17;;;3.37;;
13291;SDS011;6714;53.056;8.690;2023-02-01T09:40:39;12.60;;;3.40;;
13291;SDS011;6714;53.056;8.690;2023-02-01T09:43:28;15.27;;;3.70;;
13291;SDS011;6714;53.056;8.690;2023-02-01T09:46:16;10.43;;;3.00;;
13291;SDS011;6714;53.056;8.690;2023-02-01T09:49:01;11.80;;;3.50;;
13291;SDS011;6714;53.056;8.690;2023-02-01T09:51:45;11.87;;;3.27;;
13291;SDS011;6714;53.056;8.690;2023-02-01T09:54:29;9.17;;;2.87;;
13291;SDS011;6714;53.056;8.690;2023-02-01T09:57:13;10.30;;;3.33;;
13291;SDS011;6714;53.056;8.690;2023-02-01T10:00:00;10.80;;;3.77;;
13291;SDS011;6714;53.056;8.690;2023-02-01T10:02:43;15.83;;;3.73;;
13291;SDS011;6714;53.056;8.690;2023-02-01T10:05:31;10.40;;;3.17;;
13291;SDS011;6714;53.056;8.690;2023-02-01T10:08:19;13.70;;;3.17;;
13291;SDS011;6714;53.056;8.690;2023-02-01T10:11:11;13.10;;;3.17;;
13291;SDS011;6714;53.056;8.690;2023-02-01T10:13:59;10.33;;;3.20;;
13291;SDS011;6714;53.056;8.690;2023-02-01T10:16:46;12.53;;;3.20;;
13291;SDS011;6714;53.056;8.690;2023-02-01T10:19:34;15.13;;;3.37;;
13291;SDS011;6714;53.056;8.690;2023-02-01T10:22:24;14.53;;;3.77;;
13291;SDS011;6714;53.056;8.690;2023-02-01T10:25:13;11.73;;;3.67;;
13291;SDS011;6714;53.056;8.690;2023-02-01T10:27:56;11.93;;;3.20;;
13291;SDS011;6714;53.056;8.690;2023-02-01T10:30:41;10.60;;;3.40;;
13291;SDS011;6714;53.056;8.690;2023-02-01T10:33:27;11.67;;;3.50;;
13291;SDS011;6714;53.056;8.690;2023-02-01T10:36:13;15.93;;;3.37;;
13291;SDS011;6714;53.056;8.690;2023-02-01T10:38:58;11.40;;;3.07;;
13291;SDS011;6714;53.056;8.690;2023-02-01T10:41:41;13.47;;;3.63;;
13291;SDS011;6714;53.056;8.690;2023-02-01T10:44:25;14.17;;;3.87;;
13291;SDS011;6714;53.056;8.690;2023-02-01T10:47:08;10.30;;;3.70;;
13291;SDS011;6714;53.056;8.690;2023-02-01T10:49:58;11.67;;;3.10;;
13291;SDS011;6714;53.056;8.690;2023-02-01T10:52:42;12.93;;;2.80;;
13291;SDS011;6714;53.056;8.690;2023-02-01T10:55:32;10.90;;;2.70;;
13291;SDS011;6714;53.056;8.690;2023-02-01T10:58:16;12.03;;;3.30;;
13291;SDS011;6714;53.056;8.690;2023-02-01T11:01:00;9.40;;;3.00;;
13291;SDS011;6714;53.056;8.690;2023-02-01T11:03:43;9.03;;;3.00;;
13291;SDS011;6714;53.056;8.690;2023-02-01T11:06:28;15.17;;;3.33;;
13291;SDS011;6714;53.056;8.690;2023-02-01T11:09:16;9.43;;;3.30;;
13291;SDS011;6714;53.056;8.690;2023-02-01T11:12:20;9.53;;;3.70;;
13291;SDS011;6714;53.056;8.690;2023-02-01T11:15:18;7.93;;;2.60;;
13291;SDS011;6714;53.056;8.690;2023-02-01T11:18:07;9.83;;;3.17;;
13291;SDS011;6714;53.056;8.690;2023-02-01T11:21:02;9.97;;;3.33;;
13291;SDS011;6714;53.056;8.690;2023-02-01T11:23:48;6.80;;;2.83;;
13291;SDS011;6714;53.056;8.690;2023-02-01T11:26:31;10.03;;;3.17;;
13291;SDS011;6714;53.056;8.690;2023-02-01T11:29:28;9.93;;;3.20;;
13291;SDS011;6714;53.056;8.690;2023-02-01T11:32:15;10.87;;;2.97;;
13291;SDS011;6714;53.056;8.690;2023-02-01T11:35:03;9.23;;;2.77;;
13291;SDS011;6714;53.056;8.690;2023-02-01T11:38:11;8.83;;;2.97;;
13291;SDS011;6714;53.056;8.690;2023-02-01T11:40:59;7.60;;;2.70;;
13291;SDS011;6714;53.056;8.690;2023-02-01T11:44:19;10.87;;;2.53;;
13291;SDS011;6714;53.056;8.690;2023-02-01T11:50:16;6.43;;;2.23;;
13291;SDS011;6714;53.056;8.690;2023-02-01T11:53:33;8.50;;;2.83;;
13291;SDS011;6714;53.056;8.690;2023-02-01T11:56:22;8.13;;;2.80;;
13291;SDS011;6714;53.056;8.690;2023-02-01T11:59:11;9.87;;;2.70;;
13291;SDS011;6714;53.056;8.690;2023-02-01T12:02:00;8.50;;;2.60;;
13291;SDS011;6714;53.056;8.690;2023-02-01T12:14:40;6.30;;;2.50;;
13291;SDS011;6714;53.056;8.690;2023-02-01T12:26:33;1.10;;;0.90;;
13291;SDS011;6714;53.056;8.690;2023-02-01T12:29:24;2.03;;;0.70;;
13291;SDS011;6714;53.056;8.690;2023-02-01T12:32:11;1.03;;;0.43;;
13291;SDS011;6714;53.056;8.690;2023-02-01T12:35:05;2.53;;;1.30;;
13291;SDS011;6714;53.056;8.690;2023-02-01T12:38:04;2.00;;;1.30;;
13291;SDS011;6714;53.056;8.690;2023-02-01T12:40:50;0.87;;;0.70;;
13291;SDS011;6714;53.056;8.690;2023-02-01T12:43:38;1.07;;;0.83;;
13291;SDS011;6714;53.056;8.690;2023-02-01T12:46:35;1.10;;;0.90;;
13291;SDS011;6714;53.056;8.690;2023-02-01T12:49:23;1.20;;;0.90;;
13291;SDS011;6714;53.056;8.690;2023-02-01T12:52:12;1.67;;;0.90;;
13291;SDS011;6714;53.056;8.690;2023-02-01T12:54:57;0.67;;;0.60;;
13291;SDS011;6714;53.056;8.690;2023-02-01T12:57:43;1.97;;;0.97;;
13291;SDS011;6714;53.056;8.690;2023-02-01T13:00:30;1.87;;;1.03;;
13291;SDS011;6714;53.056;8.690;2023-02-01T13:03:15;1.63;;;1.10;;
13291;SDS011;6714;53.056;8.690;2023-02-01T13:06:02;1.10;;;0.80;;
13291;SDS011;6714;53.056;8.690;2023-02-01T13:09:07;0.80;;;0.77;;
13291;SDS011;6714;53.056;8.690;2023-02-01T13:11:53;1.43;;;1.00;;
13291;SDS011;6714;53.056;8.690;2023-02-01T13:14:37;1.30;;;0.93;;
13291;SDS011;6714;53.056;8.690;2023-02-01T13:17:23;1.23;;;1.13;;
13291;SDS011;6714;53.056;8.690;2023-02-01T13:20:06;1.20;;;0.87;;
13291;SDS011;6714;53.056;8.690;2023-02-01T13:22:57;1.60;;;0.70;;
13291;SDS011;6714;53.056;8.690;2023-02-01T13:25:43;2.27;;;1.00;;
13291;SDS011;6714;53.056;8.690;2023-02-01T13:28:36;1.33;;;1.03;;
13291;SDS011;6714;53.056;8.690;2023-02-01T13:31:27;3.63;;;1.37;;
13291;SDS011;6714;53.056;8.690;2023-02-01T13:37:27;2.37;;;1.20;;
13291;SDS011;6714;53.056;8.690;2023-02-01T13:40:21;4.67;;;1.40;;
13291;SDS011;6714;53.056;8.690;2023-02-01T13:43:07;3.33;;;1.07;;
13291;SDS011;6714;53.056;8.690;2023-02-01T13:45:53;1.13;;;0.90;;
13291;SDS011;6714;53.056;8.690;2023-02-01T13:48:39;2.93;;;1.20;;
13291;SDS011;6714;53.056;8.690;2023-02-01T13:51:31;4.77;;;1.30;;
13291;SDS011;6714;53.056;8.690;2023-02-01T13:54:25;3.33;;;1.20;;
13291;SDS011;6714;53.056;8.690;2023-02-01T13:57:14;4.67;;;1.40;;
13291;SDS011;6714;53.056;8.690;2023-02-01T14:00:24;5.43;;;1.67;;
13291;SDS011;6714;53.056;8.690;2023-02-01T14:03:11;2.80;;;1.13;;
13291;SDS011;6714;53.056;8.690;2023-02-01T14:06:16;6.50;;;1.47;;
13291;SDS011;6714;53.056;8.690;2023-02-01T14:09:10;3.80;;;1.20;;
13291;SDS011;6714;53.056;8.690;2023-02-01T14:11:55;6.93;;;1.77;;
13291;SDS011;6714;53.056;8.690;2023-02-01T14:14:39;2.70;;;1.30;;
13291;SDS011;6714;53.056;8.690;2023-02-01T14:23:42;5.97;;;1.43;;
13291;SDS011;6714;53.056;8.690;2023-02-01T14:26:26;3.47;;;1.63;;
13291;SDS011;6714;53.056;8.690;2023-02-01T14:29:25;5.73;;;1.73;;
13291;SDS011;6714;53.056;8.690;2023-02-01T14:32:14;3.87;;;1.33;;
13291;SDS011;6714;53.056;8.690;2023-02-01T14:34:58;6.10;;;1.73;;
13291;SDS011;6714;53.056;8.690;2023-02-01T14:37:41;5.43;;;2.07;;
13291;SDS011;6714;53.056;8.690;2023-02-01T14:40:26;5.43;;;1.83;;
13291;SDS011;6714;53.056;8.690;2023-02-01T14:43:09;8.93;;;2.53;;
13291;SDS011;6714;53.056;8.690;2023-02-01T14:45:51;5.80;;;1.70;;
13291;SDS011;6714;53.056;8.690;2023-02-01T14:48:43;4.67;;;1.80;;
13291;SDS011;6714;53.056;8.690;2023-02-01T14:51:26;6.00;;;1.90;;
13291;SDS011;6714;53.056;8.690;2023-02-01T14:54:11;10.30;;;2.37;;
13291;SDS011;6714;53.056;8.690;2023-02-01T14:56:55;7.97;;;2.40;;
13291;SDS011;6714;53.056;8.690;2023-02-01T14:59:39;10.93;;;2.77;;
13291;SDS011;6714;53.056;8.690;2023-02-01T15:02:25;8.90;;;2.10;;
13291;SDS011;6714;53.056;8.690;2023-02-01T15:05:20;11.43;;;3.03;;
13291;SDS011;6714;53.056;8.690;2023-02-01T15:08:05;11.67;;;2.70;;
13291;SDS011;6714;53.056;8.690;2023-02-01T15:10:49;10.20;;;3.47;;
13291;SDS011;6714;53.056;8.690;2023-02-01T15:13:32;12.27;;;3.47;;
13291;SDS011;6714;53.056;8.690;2023-02-01T15:16:15;12.37;;;3.30;;
13291;SDS011;6714;53.056;8.690;2023-02-01T15:19:07;14.17;;;3.13;;
13291;SDS011;6714;53.056;8.690;2023-02-01T15:21:52;11.80;;;3.27;;
13291;SDS011;6714;53.056;8.690;2023-02-01T15:24:34;14.07;;;3.27;;
13291;SDS011;6714;53.056;8.690;2023-02-01T15:27:16;12.87;;;2.77;;
13291;SDS011;6714;53.056;8.690;2023-02-01T15:30:04;14.30;;;3.27;;
13291;SDS011;6714;53.056;8.690;2023-02-01T15:32:47;10.97;;;3.27;;
13291;SDS011;6714;53.056;8.690;2023-02-01T15:35:39;15.90;;;3.73;;
13291;SDS011;6714;53.056;8.690;2023-02-01T15:38:35;12.63;;;2.80;;
13291;SDS011;6714;53.056;8.690;2023-02-01T15:41:18;11.83;;;3.33;;
13291;SDS011;6714;53.056;8.690;2023-02-01T15:44:04;11.80;;;3.40;;
13291;SDS011;6714;53.056;8.690;2023-02-01T15:46:48;13.93;;;3.47;;
13291;SDS011;6714;53.056;8.690;2023-02-01T15:49:31;12.33;;;3.67;;
13291;SDS011;6714;53.056;8.690;2023-02-01T15:52:21;13.10;;;3.00;;
13291;SDS011;6714;53.056;8.690;2023-02-01T15:55:07;10.23;;;3.50;;
13291;SDS011;6714;53.056;8.690;2023-02-01T15:57:50;12.30;;;3.57;;
13291;SDS011;6714;53.056;8.690;2023-02-01T16:00:34;15.50;;;3.37;;
13291;SDS011;6714;53.056;8.690;2023-02-01T16:03:34;7.30;;;2.40;;
13291;SDS011;6714;53.056;8.690;2023-02-01T16:06:27;9.57;;;2.57;;
13291;SDS011;6714;53.056;8.690;2023-02-01T16:09:10;11.67;;;2.77;;
13291;SDS011;6714;53.056;8.690;2023-02-01T16:11:56;7.97;;;2.30;;
13291;SDS011;6714;53.056;8.690;2023-02-01T16:14:38;8.53;;;2.80;;
13291;SDS011;6714;53.056;8.690;2023-02-01T16:17:21;11.13;;;2.93;;
13291;SDS011;6714;53.056;8.690;2023-02-01T16:20:03;10.50;;;3.20;;
13291;SDS011;6714;53.056;8.690;2023-02-01T16:22:46;11.27;;;2.90;;
13291;SDS011;6714;53.056;8.690;2023-02-01T16:25:28;10.73;;;2.73;;
13291;SDS011;6714;53.056;8.690;2023-02-01T16:28:12;9.10;;;2.87;;
13291;SDS011;6714;53.056;8.690;2023-02-01T16:30:54;13.50;;;3.60;;
13291;SDS011;6714;53.056;8.690;2023-02-01T16:33:38;12.03;;;3.30;;
13291;SDS011;6714;53.056;8.690;2023-02-01T16:36:20;9.23;;;2.77;;
13291;SDS011;6714;53.056;8.690;2023-02-01T16:39:02;7.67;;;2.83;;
13291;SDS011;6714;53.056;8.690;2023-02-01T16:41:45;9.27;;;2.67;;
13291;SDS011;6714;53.056;8.690;2023-02-01T16:44:28;9.33;;;2.50;;
13291;SDS011;6714;53.056;8.690;2023-02-01T16:47:11;8.73;;;2.70;;
13291;SDS011;6714;53.056;8.690;2023-02-01T16:49:54;7.90;;;2.60;;
13291;SDS011;6714;53.056;8.690;2023-02-01T16:52:36;8.33;;;2.30;;
13291;SDS011;6714;53.056;8.690;2023-02-01T16:55:19;6.60;;;2.27;;
13291;SDS011;6714;53.056;8.690;2023-02-01T16:58:02;8.47;;;2.40;;
13291;SDS011;6714;53.056;8.690;2023-02-01T17:00:46;9.63;;;2.50;;
13291;SDS011;6714;53.056;8.690;2023-02-01T17:03:29;12.93;;;3.13;;
13291;SDS011;6714;53.056;8.690;2023-02-01T17:06:12;5.80;;;2.53;;
13291;SDS011;6714;53.056;8.690;2023-02-01T17:08:55;10.37;;;3.13;;
13291;SDS011;6714;53.056;8.690;2023-02-01T17:11:38;11.03;;;3.00;;
13291;SDS011;6714;53.056;8.690;2023-02-01T17:14:21;7.17;;;2.73;;
13291;SDS011;6714;53.056;8.690;2023-02-01T17:17:07;8.40;;;2.70;;
13291;SDS011;6714;53.056;8.690;2023-02-01T17:19:50;9.70;;;2.63;;
13291;SDS011;6714;53.056;8.690;2023-02-01T17:22:33;9.83;;;2.60;;
13291;SDS011;6714;53.056;8.690;2023-02-01T17:25:15;8.93;;;2.90;;